createdAt,value
2018-08-30T00:02:26.332Z,9.15
2018-08-30T00:04:55.665Z,9.05
2018-08-30T00:07:24.879Z,8.90
2018-08-30T00:09:54.138Z,7.83
2018-08-30T00:12:24.178Z,8.25
2018-08-30T00:14:53.444Z,8.08
2018-08-30T00:17:22.642Z,8.55
2018-08-30T00:19:51.919Z,7.53
2018-08-30T00:22:21.150Z,7.10
2018-08-30T00:24:50.433Z,7.10
2018-08-30T00:27:19.802Z,6.90
2018-08-30T00:29:49.294Z,6.80
2018-08-30T00:32:18.543Z,7.08
2018-08-30T00:34:47.818Z,7.17
2018-08-30T00:37:17.046Z,6.65
2018-08-30T00:39:46.336Z,7.60
2018-08-30T00:42:15.614Z,6.95
2018-08-30T00:44:44.860Z,7.10
2018-08-30T00:47:19.462Z,7.45
2018-08-30T00:49:48.741Z,6.37
2018-08-30T00:52:18.480Z,7.45
2018-08-30T00:54:48.005Z,7.62
2018-08-30T00:57:17.710Z,8.03
2018-08-30T00:59:47.270Z,8.40
2018-08-30T01:02:16.543Z,8.63
2018-08-30T01:04:45.825Z,8.68
2018-08-30T01:07:15.145Z,7.62
2018-08-30T01:09:44.422Z,7.72
2018-08-30T01:12:13.668Z,7.90
2018-08-30T01:14:42.937Z,7.75
2018-08-30T01:17:12.171Z,8.10
2018-08-30T01:19:41.438Z,7.15
2018-08-30T01:22:10.750Z,8.65
2018-08-30T01:24:40.092Z,7.62
2018-08-30T01:27:09.486Z,7.75
2018-08-30T01:29:38.847Z,7.95
2018-08-30T01:32:08.195Z,7.87
2018-08-30T01:34:37.558Z,6.97
2018-08-30T01:37:06.842Z,7.60
2018-08-30T01:39:36.146Z,8.18
2018-08-30T01:42:05.507Z,7.65
2018-08-30T01:44:34.780Z,7.62
2018-08-30T01:47:04.099Z,7.95
2018-08-30T01:49:33.464Z,7.33
2018-08-30T01:52:03.486Z,7.20
2018-08-30T01:54:32.897Z,6.50
2018-08-30T01:57:02.330Z,6.42
2018-08-30T01:59:31.668Z,6.97
2018-08-30T02:02:00.973Z,7.00
2018-08-30T02:04:30.335Z,6.58
2018-08-30T02:07:00.646Z,6.42
2018-08-30T02:09:29.962Z,6.62
2018-08-30T02:11:59.477Z,6.37
2018-08-30T02:14:28.961Z,6.85
2018-08-30T02:16:58.321Z,6.70
2018-08-30T02:19:27.588Z,6.75
2018-08-30T02:21:57.066Z,6.92
2018-08-30T02:24:26.341Z,7.05
2018-08-30T02:26:55.569Z,6.30
2018-08-30T02:29:24.843Z,6.37
2018-08-30T02:31:54.041Z,6.37
2018-08-30T02:34:23.261Z,6.15
2018-08-30T02:36:52.500Z,6.80
2018-08-30T02:39:21.775Z,6.80
2018-08-30T02:41:51.772Z,6.65
2018-08-30T02:44:21.014Z,6.53
2018-08-30T02:46:50.231Z,6.70
2018-08-30T02:49:19.471Z,6.83
2018-08-30T02:51:48.693Z,6.50
2018-08-30T02:54:17.941Z,6.95
2018-08-30T02:56:47.189Z,6.22
2018-08-30T02:59:16.459Z,7.22
2018-08-30T03:01:45.657Z,6.90
2018-08-30T03:04:14.905Z,6.50
2018-08-30T03:06:44.104Z,7.20
2018-08-30T03:09:13.330Z,6.75
2018-08-30T03:11:42.583Z,6.42
2018-08-30T03:14:12.433Z,6.10
2018-08-30T03:16:41.837Z,7.58
2018-08-30T03:19:11.091Z,7.30
2018-08-30T03:21:40.330Z,6.28
2018-08-30T03:24:09.557Z,6.53
2018-08-30T03:26:38.792Z,6.30
2018-08-30T03:29:08.014Z,6.47
2018-08-30T03:31:37.266Z,6.00
2018-08-30T03:34:06.481Z,6.42
2018-08-30T03:36:35.732Z,6.75
2018-08-30T03:39:06.484Z,6.03
2018-08-30T03:41:35.721Z,6.15
2018-08-30T03:44:04.951Z,6.75
2018-08-30T03:46:34.201Z,6.95
2018-08-30T03:49:03.437Z,6.53
2018-08-30T03:51:32.652Z,5.95
2018-08-30T03:54:01.881Z,6.00
2018-08-30T03:56:31.126Z,6.50
2018-08-30T03:59:00.335Z,5.87
2018-08-30T04:01:29.606Z,6.28
2018-08-30T04:03:58.865Z,6.35
2018-08-30T04:06:28.101Z,5.40
2018-08-30T04:08:57.349Z,4.75
2018-08-30T04:11:26.589Z,5.22
2018-08-30T04:13:55.801Z,5.67
2018-08-30T04:16:25.049Z,4.80
2018-08-30T04:18:59.216Z,4.72
2018-08-30T04:21:28.457Z,5.08
2018-08-30T04:23:57.666Z,4.58
2018-08-30T04:26:26.923Z,4.97
2018-08-30T04:28:56.138Z,4.62
2018-08-30T04:31:25.472Z,4.70
2018-08-30T04:33:54.674Z,4.47
2018-08-30T04:36:24.167Z,4.47
2018-08-30T04:38:53.666Z,5.05
2018-08-30T04:41:22.909Z,4.75
2018-08-30T04:43:52.130Z,4.95
2018-08-30T04:46:21.384Z,4.45
2018-08-30T04:48:50.604Z,4.28
2018-08-30T04:51:19.845Z,5.05
2018-08-30T04:53:49.064Z,4.67
2018-08-30T04:56:18.282Z,4.62
2018-08-30T04:58:47.524Z,4.45
2018-08-30T05:01:16.797Z,4.60
2018-08-30T05:03:46.033Z,4.87
2018-08-30T05:06:15.270Z,4.83
2018-08-30T05:08:44.549Z,4.25
2018-08-30T05:11:13.817Z,4.60
2018-08-30T05:13:43.042Z,4.80
2018-08-30T05:16:12.313Z,5.00
2018-08-30T05:18:41.529Z,4.87
2018-08-30T05:21:10.762Z,4.90
2018-08-30T05:23:40.009Z,5.12
2018-08-30T05:26:09.260Z,5.35
2018-08-30T05:28:38.509Z,5.62
2018-08-30T05:31:07.733Z,5.92
2018-08-30T05:33:37.028Z,5.42
2018-08-30T05:36:06.263Z,5.35
2018-08-30T05:38:35.534Z,6.12
2018-08-30T05:41:04.843Z,5.58
2018-08-30T05:43:34.085Z,5.12
2018-08-30T05:46:03.346Z,5.33
2018-08-30T05:48:32.632Z,5.40
2018-08-30T05:51:01.936Z,4.67
2018-08-30T05:53:31.202Z,4.45
2018-08-30T05:56:00.512Z,3.80
2018-08-30T05:58:29.814Z,3.90
2018-08-30T06:00:59.088Z,4.12
2018-08-30T06:03:28.413Z,4.37
2018-08-30T06:05:57.652Z,4.20
2018-08-30T06:08:26.951Z,4.40
2018-08-30T06:10:56.125Z,4.05
2018-08-30T06:13:25.326Z,3.55
2018-08-30T06:15:54.718Z,3.12
2018-08-30T06:18:24.319Z,3.37
2018-08-30T06:20:53.561Z,3.17
2018-08-30T06:23:22.787Z,3.42
2018-08-30T06:25:52.026Z,3.85
2018-08-30T06:28:21.254Z,3.80
2018-08-30T06:30:50.500Z,3.98
2018-08-30T06:33:19.985Z,5.62
2018-08-30T06:35:49.243Z,6.33
2018-08-30T06:38:18.445Z,7.25
2018-08-30T06:40:47.734Z,7.70
2018-08-30T06:43:16.937Z,8.78
2018-08-30T06:45:46.145Z,8.55
2018-08-30T06:48:15.370Z,9.08
2018-08-30T06:50:44.604Z,9.43
2018-08-30T06:53:13.856Z,9.45
2018-08-30T06:55:43.092Z,10.72
2018-08-30T06:58:12.370Z,11.20
2018-08-30T07:00:41.610Z,11.28
2018-08-30T07:03:10.842Z,11.45
2018-08-30T07:05:40.101Z,12.05
2018-08-30T07:08:09.403Z,11.03
2018-08-30T07:10:38.605Z,11.60
2018-08-30T07:13:07.866Z,11.60
2018-08-30T07:15:37.165Z,11.43
2018-08-30T07:18:06.414Z,11.28
2018-08-30T07:20:35.644Z,11.90
2018-08-30T07:23:05.946Z,10.23
2018-08-30T07:25:35.152Z,9.78
2018-08-30T07:28:04.430Z,9.23
2018-08-30T07:30:33.656Z,9.33
2018-08-30T07:33:02.920Z,10.28
2018-08-30T07:35:32.155Z,10.45
2018-08-30T07:38:01.451Z,9.55
2018-08-30T07:40:30.714Z,10.88
2018-08-30T07:42:59.978Z,10.08
2018-08-30T07:45:29.250Z,11.20
2018-08-30T07:47:58.476Z,9.53
2018-08-30T07:50:27.692Z,9.10
2018-08-30T07:52:56.993Z,10.05
2018-08-30T07:55:26.378Z,9.63
2018-08-30T07:57:55.729Z,10.25
2018-08-30T08:00:25.920Z,10.95
2018-08-30T08:02:55.704Z,9.45
2018-08-30T08:05:24.945Z,10.70
2018-08-30T08:07:54.166Z,10.10
2018-08-30T08:10:23.376Z,10.50
2018-08-30T08:12:52.650Z,10.13
2018-08-30T08:15:21.916Z,10.43
2018-08-30T08:17:51.168Z,10.13
2018-08-30T08:20:20.368Z,10.18
2018-08-30T08:22:49.595Z,11.00
2018-08-30T08:25:18.956Z,10.05
2018-08-30T08:27:48.196Z,10.05
2018-08-30T08:30:17.457Z,11.10
2018-08-30T08:32:46.691Z,10.88
2018-08-30T08:35:15.930Z,9.93
2018-08-30T08:37:45.187Z,9.78
2018-08-30T08:40:14.430Z,9.18
2018-08-30T08:42:43.664Z,8.75
2018-08-30T08:45:13.009Z,9.60
2018-08-30T08:47:42.330Z,10.23
2018-08-30T08:50:11.565Z,10.03
2018-08-30T08:52:40.872Z,9.80
2018-08-30T08:55:10.129Z,10.48
2018-08-30T08:57:39.392Z,9.48
2018-08-30T09:00:08.688Z,9.70
2018-08-30T09:02:38.001Z,9.73
2018-08-30T09:05:07.945Z,9.90
2018-08-30T09:07:37.295Z,9.43
2018-08-30T09:10:07.559Z,9.43
2018-08-30T09:12:36.805Z,8.30
2018-08-30T09:15:06.077Z,8.25
2018-08-30T09:17:35.651Z,8.15
2018-08-30T09:20:05.489Z,8.28
2018-08-30T09:22:34.817Z,6.25
2018-08-30T09:25:04.126Z,6.03
2018-08-30T09:27:33.625Z,5.12
2018-08-30T09:30:03.048Z,3.33
2018-08-30T09:32:32.390Z,3.47
2018-08-30T09:35:01.795Z,3.25
2018-08-30T09:37:31.134Z,3.00
2018-08-30T09:40:00.394Z,2.77
2018-08-30T09:42:29.709Z,2.27
2018-08-30T09:44:59.090Z,2.30
2018-08-30T09:47:28.437Z,1.98
2018-08-30T09:49:57.741Z,2.33
2018-08-30T09:52:27.013Z,2.70
2018-08-30T09:54:56.316Z,2.30
2018-08-30T09:57:25.655Z,2.12
2018-08-30T09:59:54.936Z,2.30
2018-08-30T10:02:29.495Z,2.35
2018-08-30T10:04:58.790Z,2.50
2018-08-30T10:07:28.069Z,2.30
2018-08-30T10:09:57.336Z,2.67
2018-08-30T10:12:26.664Z,3.20
2018-08-30T10:14:56.057Z,3.00
2018-08-30T10:17:25.392Z,2.92
2018-08-30T10:19:54.661Z,2.80
2018-08-30T10:22:24.024Z,3.10
2018-08-30T10:24:53.349Z,2.87
2018-08-30T10:27:22.638Z,3.33
2018-08-30T10:29:51.869Z,2.33
2018-08-30T10:32:21.110Z,3.08
2018-08-30T10:34:51.053Z,2.65
2018-08-30T10:37:20.309Z,2.20
2018-08-30T10:39:49.600Z,1.90
2018-08-30T10:42:20.876Z,1.80
2018-08-30T10:44:50.422Z,1.20
2018-08-30T10:47:19.690Z,1.02
2018-08-30T10:49:49.103Z,1.05
2018-08-30T10:52:18.357Z,0.90
2018-08-30T10:54:47.655Z,0.60
2018-08-30T11:00:49.210Z,0.70
2018-08-30T11:03:18.541Z,0.62
2018-08-30T11:05:48.036Z,0.50
2018-08-30T11:08:18.421Z,1.90
2018-08-30T11:10:48.297Z,0.93
2018-08-30T11:13:17.653Z,0.70
2018-08-30T11:15:47.107Z,0.60
2018-08-30T11:18:16.499Z,0.65
2018-08-30T11:20:45.803Z,0.90
2018-08-30T11:23:16.106Z,0.72
2018-08-30T11:25:47.206Z,0.53
2018-08-30T11:28:16.507Z,0.65
2018-08-30T11:30:46.569Z,0.70
2018-08-30T11:33:15.817Z,0.70
2018-08-30T11:35:45.132Z,0.70
2018-08-30T11:38:14.415Z,0.70
2018-08-30T11:40:43.681Z,1.12
2018-08-30T11:43:12.998Z,0.70
2018-08-30T11:45:42.403Z,0.60
2018-08-30T11:48:11.701Z,1.10
2018-08-30T11:50:41.005Z,0.95
2018-08-30T11:53:10.296Z,1.00
2018-08-30T11:55:39.492Z,1.05
2018-08-30T11:58:08.895Z,1.25
2018-08-30T12:00:38.436Z,1.00
2018-08-30T12:03:07.731Z,0.95
2018-08-30T12:05:36.996Z,0.90
2018-08-30T12:08:06.427Z,1.15
2018-08-30T12:10:38.132Z,1.20
2018-08-30T12:13:07.484Z,1.40
2018-08-30T12:15:37.040Z,1.40
2018-08-30T12:18:06.495Z,1.50
2018-08-30T12:20:35.807Z,1.55
2018-08-30T12:23:05.044Z,1.30
2018-08-30T12:25:34.504Z,1.50
2018-08-30T12:28:03.816Z,1.50
2018-08-30T12:30:33.225Z,1.60
2018-08-30T12:33:02.682Z,1.37
2018-08-30T12:35:31.965Z,2.35
2018-08-30T12:38:01.310Z,1.60
2018-08-30T12:40:30.741Z,1.67
2018-08-30T12:43:00.267Z,1.42
2018-08-30T12:45:29.433Z,1.80
2018-08-30T12:47:58.775Z,1.75
2018-08-30T12:50:28.164Z,1.75
2018-08-30T12:52:57.472Z,1.65
2018-08-30T12:55:26.777Z,1.40
2018-08-30T12:57:56.054Z,1.85
2018-08-30T13:00:25.430Z,1.55
2018-08-30T13:02:54.728Z,1.95
2018-08-30T13:05:24.173Z,1.95
2018-08-30T13:07:53.474Z,2.47
2018-08-30T13:10:22.902Z,2.25
2018-08-30T13:12:52.401Z,2.60
2018-08-30T13:15:21.856Z,3.33
2018-08-30T13:17:50.940Z,3.62
2018-08-30T13:20:20.337Z,3.40
2018-08-30T13:22:49.666Z,3.87
2018-08-30T13:25:19.135Z,4.05
2018-08-30T13:27:48.250Z,4.05
2018-08-30T13:30:17.837Z,4.20
2018-08-30T13:32:47.999Z,5.05
2018-08-30T13:35:17.370Z,5.20
2018-08-30T13:37:46.375Z,5.08
2018-08-30T13:40:15.874Z,5.35
2018-08-30T13:42:45.113Z,5.60
2018-08-30T13:45:14.358Z,5.55
2018-08-30T13:47:43.481Z,5.60
2018-08-30T13:50:12.997Z,5.70
2018-08-30T13:52:42.330Z,6.37
2018-08-30T13:55:11.536Z,6.45
2018-08-30T13:57:40.918Z,7.53
2018-08-30T14:00:10.325Z,6.80
2018-08-30T14:02:39.156Z,6.50
2018-08-30T14:05:08.508Z,6.83
2018-08-30T14:07:37.716Z,7.62
2018-08-30T14:10:07.106Z,7.30
2018-08-30T14:12:36.382Z,7.35
2018-08-30T14:15:05.819Z,7.67
2018-08-30T14:17:34.535Z,6.62
2018-08-30T14:20:03.937Z,7.62
2018-08-30T14:22:33.314Z,7.55
2018-08-30T14:25:02.566Z,7.78
2018-08-30T14:27:31.789Z,7.97
2018-08-30T14:30:01.060Z,8.50
2018-08-30T14:32:30.399Z,7.40
2018-08-30T14:34:59.725Z,7.78
2018-08-30T14:37:28.989Z,7.55
2018-08-30T14:39:58.276Z,7.78
2018-08-30T14:42:27.625Z,7.78
2018-08-30T14:44:56.902Z,8.28
2018-08-30T14:47:26.253Z,7.35
2018-08-30T14:49:55.571Z,7.60
2018-08-30T14:52:24.801Z,7.72
2018-08-30T14:54:54.024Z,9.03
2018-08-30T14:57:23.234Z,7.95
2018-08-30T14:59:52.458Z,8.03
2018-08-30T15:02:21.682Z,8.20
2018-08-30T15:04:50.921Z,7.00
2018-08-30T15:07:20.246Z,7.33
2018-08-30T15:09:49.567Z,7.33
2018-08-30T15:12:18.747Z,7.20
2018-08-30T15:14:48.346Z,7.05
2018-08-30T15:17:17.850Z,7.42
2018-08-30T15:19:47.309Z,6.90
2018-08-30T15:22:16.391Z,6.15
2018-08-30T15:24:45.738Z,6.37
2018-08-30T15:27:15.079Z,6.90
2018-08-30T15:29:44.366Z,6.65
2018-08-30T15:32:13.617Z,7.22
2018-08-30T15:34:42.884Z,6.87
2018-08-30T15:37:12.293Z,6.28
2018-08-30T15:39:41.592Z,6.37
2018-08-30T15:42:10.844Z,6.25
2018-08-30T15:44:40.093Z,6.62
2018-08-30T15:47:09.347Z,6.40
2018-08-30T15:49:38.636Z,6.28
2018-08-30T15:52:07.883Z,6.72
2018-08-30T15:54:37.109Z,6.12
2018-08-30T15:57:06.700Z,6.03
2018-08-30T15:59:35.913Z,6.80
2018-08-30T16:02:05.298Z,7.12
2018-08-30T16:04:34.598Z,6.35
2018-08-30T16:07:03.879Z,6.15
2018-08-30T16:09:33.217Z,6.33
2018-08-30T16:12:02.580Z,6.47
2018-08-30T16:14:31.829Z,5.90
2018-08-30T16:17:01.171Z,6.03
2018-08-30T16:19:30.546Z,6.58
2018-08-30T16:21:59.846Z,5.65
2018-08-30T16:24:29.195Z,5.97
2018-08-30T16:26:58.581Z,5.40
2018-08-30T16:29:27.902Z,5.08
2018-08-30T16:31:57.867Z,5.90
2018-08-30T16:34:27.145Z,5.75
2018-08-30T16:36:56.537Z,5.15
2018-08-30T16:39:25.801Z,4.87
2018-08-30T16:41:55.122Z,4.70
2018-08-30T16:44:24.391Z,5.37
2018-08-30T16:46:53.699Z,4.97
2018-08-30T16:49:22.971Z,6.05
2018-08-30T16:51:52.492Z,4.80
2018-08-30T16:54:21.721Z,4.87
2018-08-30T16:56:50.952Z,4.75
2018-08-30T16:59:20.215Z,5.08
2018-08-30T17:01:49.524Z,4.58
2018-08-30T17:04:18.798Z,5.03
2018-08-30T17:06:48.066Z,6.00
2018-08-30T17:09:17.291Z,4.92
2018-08-30T17:11:46.593Z,5.08
2018-08-30T17:14:15.817Z,5.10
2018-08-30T17:16:45.149Z,4.80
2018-08-30T17:19:25.052Z,4.83
2018-08-30T17:21:55.029Z,5.37
2018-08-30T17:24:24.305Z,4.97
2018-08-30T17:26:53.662Z,6.25
2018-08-30T17:29:22.927Z,4.83
2018-08-30T17:31:52.251Z,5.35
2018-08-30T17:34:21.842Z,4.62
2018-08-30T17:36:51.186Z,5.33
2018-08-30T17:39:20.413Z,4.87
2018-08-30T17:41:49.839Z,5.65
2018-08-30T17:44:18.994Z,4.90
2018-08-30T17:46:48.269Z,5.00
2018-08-30T17:49:17.605Z,4.97
2018-08-30T17:51:46.861Z,4.85
2018-08-30T17:54:16.081Z,4.45
2018-08-30T17:56:45.324Z,5.00
2018-08-30T17:59:14.552Z,4.72
2018-08-30T18:01:43.850Z,5.08
2018-08-30T18:04:13.117Z,4.97
2018-08-30T18:06:42.413Z,5.22
2018-08-30T18:09:11.684Z,5.72
2018-08-30T18:11:40.947Z,5.47
2018-08-30T18:14:10.203Z,5.62
2018-08-30T18:16:39.449Z,5.62
2018-08-30T18:19:08.675Z,5.25
2018-08-30T18:21:37.917Z,5.65
2018-08-30T18:24:07.296Z,5.97
2018-08-30T18:26:36.544Z,6.03
2018-08-30T18:29:05.774Z,7.25
2018-08-30T18:31:35.059Z,6.67
2018-08-30T18:34:04.308Z,7.08
2018-08-30T18:36:33.571Z,7.40
2018-08-30T18:39:02.888Z,8.20
2018-08-30T18:41:32.145Z,8.65
2018-08-30T18:44:01.414Z,8.10
2018-08-30T18:46:30.644Z,8.48
2018-08-30T18:48:59.907Z,8.65
2018-08-30T18:51:29.801Z,8.43
2018-08-30T18:53:59.313Z,8.33
2018-08-30T18:56:28.765Z,8.73
2018-08-30T18:58:58.451Z,8.98
2018-08-30T19:01:27.705Z,10.78
2018-08-30T19:03:57.243Z,9.15
2018-08-30T19:06:26.887Z,9.45
2018-08-30T19:08:56.161Z,9.78
2018-08-30T19:11:26.338Z,10.00
2018-08-30T19:13:55.616Z,9.28
2018-08-30T19:16:30.103Z,9.60
2018-08-30T19:19:04.701Z,9.25
2018-08-30T19:21:33.958Z,9.25
2018-08-30T19:24:03.237Z,8.48
2018-08-30T19:26:32.500Z,9.10
2018-08-30T19:29:01.921Z,8.95
2018-08-30T19:31:31.256Z,9.05
2018-08-30T19:34:00.621Z,8.53
2018-08-30T19:36:31.147Z,9.50
2018-08-30T19:39:01.049Z,9.83
2018-08-30T19:41:30.370Z,8.93
2018-08-30T19:43:59.773Z,10.40
2018-08-30T19:46:29.071Z,9.80
2018-08-30T19:48:58.375Z,10.53
2018-08-30T19:51:27.711Z,11.25
2018-08-30T19:53:57.693Z,10.45
2018-08-30T19:56:26.944Z,10.03
2018-08-30T19:58:56.843Z,10.32
2018-08-30T20:01:26.111Z,10.90
2018-08-30T20:03:55.438Z,10.40
2018-08-30T20:06:24.768Z,11.25
2018-08-30T20:08:54.042Z,10.68
2018-08-30T20:11:23.333Z,10.53
2018-08-30T20:13:52.646Z,11.22
2018-08-30T20:16:21.974Z,10.40
2018-08-30T20:18:51.362Z,9.88
2018-08-30T20:21:20.674Z,10.98
2018-08-30T20:23:50.013Z,10.25
2018-08-30T20:26:19.313Z,11.22
2018-08-30T20:28:48.612Z,10.10
2018-08-30T20:31:18.065Z,10.20
2018-08-30T20:33:47.394Z,10.55
2018-08-30T20:36:16.646Z,10.50
2018-08-30T20:38:45.990Z,11.30
2018-08-30T20:41:15.439Z,10.38
2018-08-30T20:43:45.526Z,10.38
2018-08-30T20:46:14.808Z,9.98
2018-08-30T20:48:44.164Z,10.78
2018-08-30T20:51:13.465Z,10.80
2018-08-30T20:53:42.769Z,10.20
2018-08-30T20:56:12.042Z,9.23
2018-08-30T20:58:41.480Z,10.30
2018-08-30T21:01:11.214Z,9.83
2018-08-30T21:03:40.551Z,10.72
2018-08-30T21:06:09.910Z,9.60
2018-08-30T21:08:39.255Z,9.95
2018-08-30T21:11:08.608Z,10.38
2018-08-30T21:13:38.608Z,9.68
2018-08-30T21:16:07.952Z,9.20
2018-08-30T21:18:43.551Z,10.32
2018-08-30T21:21:12.822Z,8.63
2018-08-30T21:23:42.207Z,9.88
2018-08-30T21:26:11.539Z,10.28
2018-08-30T21:28:40.888Z,10.78
2018-08-30T21:31:10.206Z,9.35
2018-08-30T21:33:39.598Z,10.38
2018-08-30T21:36:09.021Z,10.13
2018-08-30T21:38:39.049Z,10.75
2018-08-30T21:41:08.074Z,10.10
2018-08-30T21:43:37.376Z,9.88
2018-08-30T21:46:06.699Z,10.25
2018-08-30T21:48:36.119Z,10.23
2018-08-30T21:51:05.624Z,11.08
2018-08-30T21:53:35.707Z,10.10
2018-08-30T21:56:05.044Z,9.88
2018-08-30T21:58:34.378Z,10.10
2018-08-30T22:01:03.632Z,10.30
2018-08-30T22:03:33.032Z,10.45
2018-08-30T22:06:02.529Z,9.93
2018-08-30T22:08:32.021Z,9.80
2018-08-30T22:11:01.478Z,9.63
2018-08-30T22:13:30.811Z,9.85
2018-08-30T22:16:00.230Z,10.58
2018-08-30T22:18:30.335Z,9.83
2018-08-30T22:20:59.792Z,10.20
2018-08-30T22:23:29.658Z,8.98
2018-08-30T22:25:59.525Z,8.78
2018-08-30T22:28:28.876Z,9.73
2018-08-30T22:30:58.161Z,9.20
2018-08-30T22:33:27.461Z,9.48
2018-08-30T22:35:56.780Z,9.75
2018-08-30T22:38:26.137Z,10.00
2018-08-30T22:40:55.661Z,9.55
2018-08-30T22:43:24.882Z,9.53
2018-08-30T22:45:54.160Z,9.40
2018-08-30T22:48:23.399Z,9.35
2018-08-30T22:50:52.626Z,9.10
2018-08-30T22:53:21.894Z,9.53
2018-08-30T22:55:51.169Z,8.93
2018-08-30T22:58:20.419Z,9.28
2018-08-30T23:00:49.691Z,8.38
2018-08-30T23:03:18.919Z,8.83
2018-08-30T23:05:48.174Z,9.38
2018-08-30T23:08:17.413Z,9.10
2018-08-30T23:10:46.672Z,8.85
2018-08-30T23:13:15.893Z,9.50
2018-08-30T23:15:45.125Z,9.45
2018-08-30T23:18:14.346Z,8.83
2018-08-30T23:20:43.582Z,9.08
2018-08-30T23:23:12.837Z,8.33
2018-08-30T23:25:42.078Z,9.15
2018-08-30T23:28:11.327Z,9.00
2018-08-30T23:30:40.540Z,8.70
2018-08-30T23:33:09.743Z,9.18
2018-08-30T23:35:38.981Z,8.93
2018-08-30T23:38:08.648Z,8.90
2018-08-30T23:40:37.875Z,9.10
2018-08-30T23:43:07.113Z,8.20
2018-08-30T23:45:36.379Z,8.25
2018-08-30T23:48:05.884Z,8.55
2018-08-30T23:50:35.114Z,9.00
2018-08-30T23:53:04.312Z,8.45
2018-08-30T23:55:33.648Z,8.00
2018-08-30T23:58:19.767Z,8.83
